createdAt,value
2022-09-06T00:00:01.086Z,20.25
2022-09-06T00:01:01.026Z,20.31
2022-09-06T00:02:01.007Z,20.28
2022-09-06T00:03:01.029Z,20.26
2022-09-06T00:04:01.102Z,20.25
2022-09-06T00:05:01.043Z,20.16
2022-09-06T00:06:01.021Z,20.22
2022-09-06T00:07:01.005Z,20.13
2022-09-06T00:08:00.996Z,20.09
2022-09-06T00:09:01.003Z,20.22
2022-09-06T00:10:00.975Z,20.11
2022-09-06T00:11:01.512Z,20.06
2022-09-06T00:12:00.993Z,20.10
2022-09-06T00:13:00.967Z,20.06
2022-09-06T00:14:00.993Z,20.06
2022-09-06T00:15:00.955Z,20.10
2022-09-06T00:16:01.033Z,19.94
2022-09-06T00:17:00.980Z,20.04
2022-09-06T00:18:00.962Z,20.03
2022-09-06T00:19:00.953Z,20.04
2022-09-06T00:20:00.915Z,19.89
2022-09-06T00:21:00.933Z,19.86
2022-09-06T00:22:00.907Z,19.82
2022-09-06T00:23:00.936Z,19.79
2022-09-06T00:24:00.938Z,19.76
2022-09-06T00:25:00.927Z,19.85
2022-09-06T00:26:00.896Z,19.64
2022-09-06T00:27:00.921Z,19.64
2022-09-06T00:28:00.898Z,19.66
2022-09-06T00:29:00.882Z,19.59
2022-09-06T00:30:00.904Z,19.55
2022-09-06T00:31:00.926Z,19.54
2022-09-06T00:32:00.890Z,19.54
2022-09-06T00:33:00.869Z,19.44
2022-09-06T00:34:00.858Z,19.45
2022-09-06T00:35:00.952Z,19.40
2022-09-06T00:36:00.858Z,19.36
2022-09-06T00:37:00.852Z,19.33
2022-09-06T00:38:00.862Z,19.41
2022-09-06T00:39:00.835Z,19.37
2022-09-06T00:40:00.912Z,19.33
2022-09-06T00:41:00.848Z,19.36
2022-09-06T00:42:00.853Z,19.34
2022-09-06T00:43:00.833Z,19.24
2022-09-06T00:44:00.861Z,19.29
2022-09-06T00:45:00.804Z,19.24
2022-09-06T00:46:00.868Z,19.34
2022-09-06T00:47:00.800Z,19.33
2022-09-06T00:48:00.808Z,19.29
2022-09-06T00:49:00.788Z,19.30
2022-09-06T00:50:00.812Z,19.33
2022-09-06T00:51:00.778Z,19.29
2022-09-06T00:52:00.773Z,19.34
2022-09-06T00:53:00.766Z,19.33
2022-09-06T00:54:00.776Z,19.36
2022-09-06T00:55:00.753Z,19.31
2022-09-06T00:56:00.799Z,19.31
2022-09-06T00:57:00.751Z,19.26
2022-09-06T00:58:00.779Z,19.27
2022-09-06T00:59:00.778Z,19.27
2022-09-06T01:00:00.747Z,19.30
2022-09-06T01:01:00.736Z,19.30
2022-09-06T01:02:00.857Z,19.30
2022-09-06T01:03:00.718Z,19.18
2022-09-06T01:04:00.744Z,19.21
2022-09-06T01:05:00.728Z,19.21
2022-09-06T01:06:00.724Z,19.19
2022-09-06T01:07:00.716Z,19.19
2022-09-06T01:08:00.726Z,19.21
2022-09-06T01:09:00.695Z,19.21
2022-09-06T01:10:00.710Z,19.16
2022-09-06T01:11:00.693Z,19.18
2022-09-06T01:12:00.741Z,19.18
2022-09-06T01:13:00.683Z,19.22
2022-09-06T01:14:00.734Z,19.22
2022-09-06T01:15:00.720Z,19.22
2022-09-06T01:16:00.787Z,19.15
2022-09-06T01:17:00.718Z,19.21
2022-09-06T01:18:00.647Z,19.24
2022-09-06T01:19:00.653Z,19.21
2022-09-06T01:20:00.673Z,19.14
2022-09-06T01:21:00.702Z,19.24
2022-09-06T01:22:00.636Z,19.21
2022-09-06T01:23:00.660Z,19.19
2022-09-06T01:24:00.664Z,19.16
2022-09-06T01:25:00.663Z,19.16
2022-09-06T01:26:00.626Z,19.15
2022-09-06T01:27:00.608Z,19.19
2022-09-06T01:28:00.635Z,19.19
2022-09-06T01:29:00.634Z,19.22
2022-09-06T01:30:00.606Z,19.15
2022-09-06T01:31:00.697Z,19.26
2022-09-06T01:32:00.598Z,19.18
2022-09-06T01:33:00.609Z,19.14
2022-09-06T01:34:00.772Z,19.15
2022-09-06T01:35:00.586Z,19.12
2022-09-06T01:36:00.577Z,19.16
2022-09-06T01:37:09.966Z,19.21
2022-09-06T01:38:00.577Z,19.16
2022-09-06T01:39:00.560Z,19.15
2022-09-06T01:40:00.625Z,19.15
2022-09-06T01:41:00.564Z,19.16
2022-09-06T01:42:00.546Z,19.14
2022-09-06T01:43:00.595Z,19.11
2022-09-06T01:44:00.541Z,19.14
2022-09-06T01:45:00.579Z,19.14
2022-09-06T01:46:00.616Z,19.18
2022-09-06T01:47:00.561Z,19.15
2022-09-06T01:48:00.542Z,19.15
2022-09-06T01:49:00.513Z,19.12
2022-09-06T01:50:00.561Z,19.12
2022-09-06T01:51:00.497Z,19.08
2022-09-06T01:52:00.498Z,19.07
2022-09-06T01:53:00.528Z,18.99
2022-09-06T01:54:00.503Z,18.99
2022-09-06T01:55:00.485Z,18.99
2022-09-06T01:56:00.497Z,19.02
2022-09-06T01:57:00.482Z,18.98
2022-09-06T01:58:00.495Z,18.92
2022-09-06T01:59:00.503Z,18.96
2022-09-06T02:00:00.491Z,18.90
2022-09-06T02:01:00.688Z,18.84
2022-09-06T02:02:00.471Z,18.88
2022-09-06T02:03:00.471Z,18.75
2022-09-06T02:04:00.488Z,18.77
2022-09-06T02:05:00.462Z,18.78
2022-09-06T02:06:00.470Z,18.83
2022-09-06T02:07:00.440Z,18.77
2022-09-06T02:08:00.428Z,18.81
2022-09-06T02:09:00.412Z,18.92
2022-09-06T02:10:00.415Z,18.89
2022-09-06T02:11:00.395Z,18.88
2022-09-06T02:12:00.385Z,18.88
2022-09-06T02:13:00.383Z,18.88
2022-09-06T02:14:00.404Z,18.89
2022-09-06T02:15:00.411Z,18.92
2022-09-06T02:16:00.409Z,18.92
2022-09-06T02:17:00.417Z,18.88
2022-09-06T02:18:00.403Z,18.88
2022-09-06T02:19:00.359Z,18.84
2022-09-06T02:20:00.365Z,18.84
2022-09-06T02:21:00.342Z,18.92
2022-09-06T02:22:00.362Z,18.90
2022-09-06T02:23:00.341Z,18.75
2022-09-06T02:24:00.365Z,18.81
2022-09-06T02:25:00.335Z,18.83
2022-09-06T02:26:00.333Z,18.89
2022-09-06T02:27:00.336Z,18.75
2022-09-06T02:28:00.319Z,18.73
2022-09-06T02:29:00.313Z,18.77
2022-09-06T02:30:00.312Z,18.78
2022-09-06T02:31:00.390Z,18.78
2022-09-06T02:32:00.295Z,18.75
2022-09-06T02:33:00.301Z,18.81
2022-09-06T02:34:00.284Z,18.80
2022-09-06T02:35:00.342Z,18.83
2022-09-06T02:36:00.275Z,18.78
2022-09-06T02:37:00.291Z,18.73
2022-09-06T02:38:00.253Z,18.81
2022-09-06T02:39:00.265Z,18.75
2022-09-06T02:40:00.381Z,18.75
2022-09-06T02:41:00.273Z,18.75
2022-09-06T02:42:00.239Z,18.70
2022-09-06T02:43:00.249Z,18.68
2022-09-06T02:44:00.261Z,18.71
2022-09-06T02:45:00.267Z,18.68
2022-09-06T02:46:00.353Z,18.66
2022-09-06T02:47:00.249Z,18.63
2022-09-06T02:48:00.238Z,18.68
2022-09-06T02:49:00.221Z,18.73
2022-09-06T02:50:00.216Z,18.75
2022-09-06T02:51:00.211Z,18.65
2022-09-06T02:52:00.207Z,18.60
2022-09-06T02:53:00.181Z,18.60
2022-09-06T02:54:00.188Z,18.58
2022-09-06T02:55:00.198Z,18.62
2022-09-06T02:56:00.184Z,18.60
2022-09-06T02:57:00.182Z,18.55
2022-09-06T02:58:00.158Z,18.50
2022-09-06T02:59:00.177Z,18.47
2022-09-06T03:00:00.183Z,18.56
2022-09-06T03:01:00.246Z,18.53
2022-09-06T03:02:00.308Z,18.53
2022-09-06T03:03:00.166Z,18.47
2022-09-06T03:04:00.146Z,18.44
2022-09-06T03:05:00.141Z,18.44
2022-09-06T03:06:00.130Z,18.47
2022-09-06T03:07:00.122Z,18.47
2022-09-06T03:08:00.127Z,18.38
2022-09-06T03:09:00.120Z,18.43
2022-09-06T03:10:00.154Z,18.40
2022-09-06T03:11:00.185Z,18.41
2022-09-06T03:12:00.121Z,18.37
2022-09-06T03:13:00.112Z,18.31
2022-09-06T03:14:00.081Z,18.29
2022-09-06T03:15:00.082Z,18.34
2022-09-06T03:16:00.086Z,18.31
2022-09-06T03:17:00.213Z,18.29
2022-09-06T03:18:00.082Z,18.29
2022-09-06T03:19:00.074Z,18.25
2022-09-06T03:20:00.054Z,18.29
2022-09-06T03:21:00.052Z,18.33
2022-09-06T03:22:00.079Z,18.29
2022-09-06T03:23:00.053Z,18.33
2022-09-06T03:24:00.058Z,18.26
2022-09-06T03:25:00.058Z,18.29
2022-09-06T03:26:00.032Z,18.28
2022-09-06T03:27:00.027Z,18.26
2022-09-06T03:28:00.037Z,18.25
2022-09-06T03:29:00.023Z,18.18
2022-09-06T03:30:00.006Z,18.22
2022-09-06T03:31:00.045Z,18.25
2022-09-06T03:31:59.997Z,18.13
2022-09-06T03:33:02.723Z,18.20
2022-09-06T03:33:59.978Z,18.25
2022-09-06T03:34:59.971Z,18.20
2022-09-06T03:35:59.985Z,18.19
2022-09-06T03:36:59.963Z,18.23
2022-09-06T03:37:59.980Z,18.19
2022-09-06T03:38:59.957Z,18.18
2022-09-06T03:40:00.073Z,18.23
2022-09-06T03:40:59.949Z,18.26
2022-09-06T03:41:59.939Z,18.19
2022-09-06T03:42:59.957Z,18.20
2022-09-06T03:43:59.935Z,18.18
2022-09-06T03:44:59.959Z,18.20
2022-09-06T03:45:59.979Z,18.20
2022-09-06T03:47:00.049Z,18.23
2022-09-06T03:47:59.927Z,18.10
2022-09-06T03:48:59.923Z,18.19
2022-09-06T03:49:59.891Z,18.19
2022-09-06T03:50:59.897Z,18.08
2022-09-06T03:51:59.898Z,18.10
2022-09-06T03:52:59.892Z,18.04
2022-09-06T03:53:59.878Z,18.01
2022-09-06T03:54:59.891Z,18.04
2022-09-06T03:55:59.889Z,17.98
2022-09-06T03:56:59.864Z,17.94
2022-09-06T03:57:59.883Z,18.01
2022-09-06T03:58:59.857Z,18.05
2022-09-06T03:59:59.838Z,18.01
2022-09-06T04:00:59.924Z,17.98
2022-09-06T04:01:59.889Z,17.94
2022-09-06T04:03:01.838Z,17.90
2022-09-06T04:03:59.837Z,17.85
2022-09-06T04:04:59.836Z,17.83
2022-09-06T04:05:59.809Z,17.86
2022-09-06T04:06:59.812Z,17.82
2022-09-06T04:08:00.319Z,17.80
2022-09-06T04:09:00.112Z,17.87
2022-09-06T04:10:00.252Z,17.92
2022-09-06T04:10:59.805Z,17.85
2022-09-06T04:11:59.792Z,17.86
2022-09-06T04:12:59.778Z,17.86
2022-09-06T04:13:59.865Z,17.83
2022-09-06T04:14:59.761Z,17.89
2022-09-06T04:15:59.775Z,17.79
2022-09-06T04:16:59.850Z,17.85
2022-09-06T04:17:59.754Z,17.79
2022-09-06T04:18:59.737Z,17.80
2022-09-06T04:19:59.757Z,17.76
2022-09-06T04:21:00.084Z,17.79
2022-09-06T04:21:59.954Z,17.79
2022-09-06T04:22:59.994Z,17.78
2022-09-06T04:23:59.720Z,17.78
2022-09-06T04:24:59.703Z,17.74
2022-09-06T04:25:59.695Z,17.68
2022-09-06T04:26:59.693Z,17.70
2022-09-06T04:27:59.705Z,17.65
2022-09-06T04:28:59.761Z,17.68
2022-09-06T04:29:59.693Z,17.74
2022-09-06T04:31:03.980Z,17.76
2022-09-06T04:31:59.794Z,17.78
2022-09-06T04:32:59.790Z,17.74
2022-09-06T04:33:59.652Z,17.79
2022-09-06T04:34:59.771Z,17.74
2022-09-06T04:35:59.651Z,17.78
2022-09-06T04:36:59.672Z,17.74
2022-09-06T04:37:59.675Z,17.78
2022-09-06T04:38:59.676Z,17.70
2022-09-06T04:39:59.689Z,17.76
2022-09-06T04:40:59.630Z,17.76
2022-09-06T04:41:59.613Z,17.76
2022-09-06T04:42:59.662Z,17.79
2022-09-06T04:43:59.601Z,17.78
2022-09-06T04:44:59.600Z,17.74
2022-09-06T04:45:59.648Z,17.79
2022-09-06T04:46:59.600Z,17.76
2022-09-06T04:47:59.591Z,17.76
2022-09-06T04:48:59.584Z,17.76
2022-09-06T04:49:59.569Z,17.68
2022-09-06T04:50:59.567Z,17.68
2022-09-06T04:51:59.556Z,17.68
2022-09-06T04:52:59.561Z,17.74
2022-09-06T04:53:59.546Z,17.78
2022-09-06T04:54:59.562Z,17.76
2022-09-06T04:55:59.586Z,17.65
2022-09-06T04:56:59.563Z,17.74
2022-09-06T04:57:59.523Z,17.78
2022-09-06T04:58:59.526Z,17.83
2022-09-06T04:59:59.525Z,17.83
2022-09-06T05:00:59.628Z,17.83
2022-09-06T05:01:59.719Z,17.86
2022-09-06T05:02:59.516Z,17.94
2022-09-06T05:03:59.514Z,17.94
2022-09-06T05:04:59.489Z,17.87
2022-09-06T05:05:59.480Z,17.82
2022-09-06T05:06:59.487Z,17.85
2022-09-06T05:07:59.508Z,17.86
2022-09-06T05:08:59.489Z,17.85
2022-09-06T05:09:59.457Z,17.90
2022-09-06T05:10:59.457Z,17.95
2022-09-06T05:11:59.614Z,17.89
2022-09-06T05:12:59.455Z,17.95
2022-09-06T05:13:59.464Z,17.97
2022-09-06T05:14:59.453Z,17.90
2022-09-06T05:15:59.499Z,17.97
2022-09-06T05:16:59.455Z,17.95
2022-09-06T05:17:59.458Z,18.00
2022-09-06T05:18:59.442Z,18.05
2022-09-06T05:19:59.401Z,18.01
2022-09-06T05:20:59.479Z,18.01
2022-09-06T05:21:59.397Z,18.01
2022-09-06T05:22:59.388Z,18.00
2022-09-06T05:23:59.655Z,17.97
2022-09-06T05:24:59.599Z,18.00
2022-09-06T05:25:59.517Z,18.00
2022-09-06T05:26:59.643Z,18.10
2022-09-06T05:27:59.807Z,18.11
2022-09-06T05:28:59.655Z,18.13
2022-09-06T05:29:59.346Z,18.11
2022-09-06T05:30:59.362Z,18.10
2022-09-06T05:31:59.518Z,18.13
2022-09-06T05:32:59.360Z,18.22
2022-09-06T05:33:59.378Z,18.11
2022-09-06T05:34:59.375Z,18.15
2022-09-06T05:35:59.376Z,18.16
2022-09-06T05:36:59.345Z,18.20
2022-09-06T05:37:59.331Z,18.22
2022-09-06T05:38:59.334Z,18.16
2022-09-06T05:39:59.325Z,18.26
2022-09-06T05:40:59.328Z,18.28
2022-09-06T05:41:59.322Z,18.28
2022-09-06T05:42:59.313Z,18.29
2022-09-06T05:43:59.290Z,18.31
2022-09-06T05:44:59.327Z,18.37
2022-09-06T05:45:59.354Z,18.33
2022-09-06T05:46:59.261Z,18.33
2022-09-06T05:47:59.310Z,18.40
2022-09-06T05:48:59.313Z,18.43
2022-09-06T05:49:59.282Z,18.45
2022-09-06T05:50:59.235Z,18.44
2022-09-06T05:51:59.251Z,18.58
2022-09-06T05:52:59.267Z,18.62
2022-09-06T05:53:59.237Z,18.50
2022-09-06T05:54:59.219Z,18.59
2022-09-06T05:55:59.226Z,18.56
2022-09-06T05:56:59.252Z,18.59
2022-09-06T05:57:59.229Z,18.70
2022-09-06T05:58:59.210Z,18.62
2022-09-06T05:59:59.192Z,18.66
2022-09-06T06:00:59.240Z,18.71
2022-09-06T06:01:59.202Z,18.66
2022-09-06T06:02:59.189Z,18.75
2022-09-06T06:03:59.164Z,18.73
2022-09-06T06:04:59.217Z,18.75
2022-09-06T06:05:59.162Z,18.73
2022-09-06T06:06:59.183Z,18.77
2022-09-06T06:07:59.132Z,18.77
2022-09-06T06:08:59.169Z,18.83
2022-09-06T06:09:59.120Z,18.80
2022-09-06T06:10:59.154Z,18.88
2022-09-06T06:11:59.161Z,18.90
2022-09-06T06:12:59.163Z,18.89
2022-09-06T06:13:59.267Z,18.88
2022-09-06T06:14:59.099Z,19.00
2022-09-06T06:15:59.200Z,18.98
2022-09-06T06:16:59.204Z,19.04
2022-09-06T06:17:59.135Z,19.11
2022-09-06T06:18:59.108Z,19.11
2022-09-06T06:19:59.230Z,19.14
2022-09-06T06:20:59.104Z,19.21
2022-09-06T06:21:59.169Z,19.21
2022-09-06T06:22:59.072Z,19.18
2022-09-06T06:23:59.054Z,19.30
2022-09-06T06:24:59.087Z,19.39
2022-09-06T06:25:59.072Z,19.36
2022-09-06T06:26:59.051Z,19.47
2022-09-06T06:27:59.128Z,19.63
2022-09-06T06:28:59.087Z,19.77
2022-09-06T06:29:59.054Z,19.70
2022-09-06T06:30:59.039Z,19.89
2022-09-06T06:31:59.097Z,19.92
2022-09-06T06:32:59.053Z,19.94
2022-09-06T06:33:59.011Z,20.00
2022-09-06T06:34:59.036Z,20.02
2022-09-06T06:35:59.022Z,20.00
2022-09-06T06:36:59.017Z,20.02
2022-09-06T06:37:59.035Z,19.99
2022-09-06T06:38:59.011Z,20.10
2022-09-06T06:39:59.060Z,20.13
2022-09-06T06:41:03.201Z,20.16
2022-09-06T06:41:58.988Z,20.22
2022-09-06T06:42:58.995Z,20.32
2022-09-06T06:43:58.987Z,20.34
2022-09-06T06:44:59.003Z,20.41
2022-09-06T06:45:59.051Z,20.43
2022-09-06T06:46:58.951Z,20.43
2022-09-06T06:47:58.968Z,20.52
2022-09-06T06:48:58.959Z,20.60
2022-09-06T06:49:58.972Z,20.59
2022-09-06T06:50:58.936Z,20.69
2022-09-06T06:51:58.952Z,20.80
2022-09-06T06:52:58.958Z,20.90
2022-09-06T06:53:58.929Z,20.96
2022-09-06T06:54:58.959Z,20.93
2022-09-06T06:55:58.914Z,20.92
2022-09-06T06:56:58.932Z,20.92
2022-09-06T06:57:58.916Z,20.96
2022-09-06T06:58:58.918Z,20.92
2022-09-06T06:59:58.906Z,20.95
2022-09-06T07:00:58.978Z,20.96
2022-09-06T07:01:59.033Z,20.93
2022-09-06T07:02:58.904Z,20.96
2022-09-06T07:03:58.885Z,20.97
2022-09-06T07:04:59.122Z,21.03
2022-09-06T07:06:14.393Z,21.06
2022-09-06T07:07:58.898Z,20.95
2022-09-06T07:08:58.876Z,21.14
2022-09-06T07:10:58.876Z,21.39
2022-09-06T07:11:58.852Z,21.45
2022-09-06T07:12:58.878Z,21.43
2022-09-06T07:13:58.829Z,21.51
2022-09-06T07:14:58.862Z,21.64
2022-09-06T07:15:58.866Z,21.60
2022-09-06T07:16:58.830Z,21.75
2022-09-06T07:17:58.903Z,21.91
2022-09-06T07:18:58.836Z,21.80
2022-09-06T07:20:14.985Z,21.82
2022-09-06T07:22:02.761Z,22.10
2022-09-06T07:24:06.812Z,22.30
2022-09-06T07:24:58.800Z,22.18
2022-09-06T07:25:58.814Z,22.28
2022-09-06T07:28:00.575Z,22.33
2022-09-06T07:28:58.845Z,22.43
2022-09-06T07:29:58.764Z,22.33
2022-09-06T07:30:58.832Z,22.38
2022-09-06T07:32:14.164Z,22.38
2022-09-06T07:32:58.767Z,22.39
2022-09-06T07:33:58.793Z,22.66
2022-09-06T07:34:58.764Z,22.84
2022-09-06T07:35:58.776Z,22.99
2022-09-06T07:36:58.788Z,23.15
2022-09-06T07:37:58.810Z,23.43
2022-09-06T07:38:58.901Z,23.37
2022-09-06T07:39:58.845Z,23.37
2022-09-06T07:40:58.753Z,23.21
2022-09-06T07:41:58.771Z,23.15
2022-09-06T07:42:58.916Z,23.13
2022-09-06T07:43:58.825Z,23.00
2022-09-06T07:44:58.755Z,22.69
2022-09-06T07:45:58.786Z,22.62
2022-09-06T07:47:59.075Z,22.54
2022-09-06T07:48:58.717Z,22.38
2022-09-06T07:50:59.287Z,22.22
2022-09-06T07:51:58.788Z,22.13
2022-09-06T07:54:19.426Z,21.93
2022-09-06T07:54:58.715Z,21.88
2022-09-06T07:55:58.735Z,21.82
2022-09-06T07:56:58.707Z,21.82
2022-09-06T07:57:58.733Z,21.73
2022-09-06T07:58:58.691Z,21.73
2022-09-06T07:59:58.736Z,21.61
2022-09-06T08:00:58.729Z,21.64
2022-09-06T08:01:58.770Z,21.64
2022-09-06T08:02:58.671Z,21.57
2022-09-06T08:03:58.682Z,21.54
2022-09-06T08:04:58.670Z,21.55
2022-09-06T08:06:13.989Z,21.51
2022-09-06T08:08:59.245Z,21.43
2022-09-06T08:09:58.660Z,21.40
2022-09-06T08:10:58.659Z,21.33
2022-09-06T08:11:58.654Z,21.22
2022-09-06T08:12:58.754Z,21.21
2022-09-06T08:13:58.654Z,21.22
2022-09-06T08:14:58.754Z,21.17
2022-09-06T08:15:58.716Z,21.17
2022-09-06T08:16:58.702Z,21.06
2022-09-06T08:17:58.689Z,21.07
2022-09-06T08:18:58.645Z,21.09
2022-09-06T08:19:58.613Z,21.09
2022-09-06T08:20:58.688Z,21.03
2022-09-06T08:21:58.594Z,21.07
2022-09-06T08:22:58.621Z,21.11
2022-09-06T08:23:58.613Z,21.00
2022-09-06T08:24:58.592Z,21.00
2022-09-06T08:25:58.590Z,20.97
2022-09-06T08:26:58.592Z,20.95
2022-09-06T08:27:58.605Z,20.95
2022-09-06T08:28:58.603Z,20.96
2022-09-06T08:29:58.589Z,21.02
2022-09-06T08:30:58.582Z,21.00
2022-09-06T08:31:58.614Z,21.03
2022-09-06T08:32:58.591Z,21.05
2022-09-06T08:33:58.581Z,21.09
2022-09-06T08:34:58.572Z,21.14
2022-09-06T08:35:58.613Z,21.07
2022-09-06T08:36:58.576Z,21.14
2022-09-06T08:37:58.539Z,21.12
2022-09-06T08:38:58.577Z,21.17
2022-09-06T08:39:58.672Z,21.06
2022-09-06T08:40:58.697Z,21.07
2022-09-06T08:41:58.625Z,21.06
2022-09-06T08:42:58.543Z,21.09
2022-09-06T08:44:58.850Z,21.02
2022-09-06T08:45:58.512Z,21.09
2022-09-06T08:46:58.576Z,21.20
2022-09-06T08:47:58.497Z,21.14
2022-09-06T08:48:58.535Z,21.07
2022-09-06T08:49:58.490Z,21.06
2022-09-06T08:50:58.475Z,21.09
2022-09-06T08:51:58.485Z,21.21
2022-09-06T08:53:17.112Z,21.32
2022-09-06T08:53:58.481Z,21.93
2022-09-06T08:54:58.459Z,21.85
2022-09-06T08:55:58.479Z,21.99
2022-09-06T08:56:58.495Z,21.98
2022-09-06T08:57:58.503Z,21.85
2022-09-06T08:58:58.845Z,21.96
2022-09-06T08:59:58.777Z,22.20
2022-09-06T09:00:58.858Z,22.30
2022-09-06T09:01:58.578Z,22.15
2022-09-06T09:02:58.947Z,22.04
2022-09-06T09:03:58.702Z,21.95
2022-09-06T09:04:58.721Z,21.85
2022-09-06T09:05:58.739Z,21.76
2022-09-06T09:06:58.746Z,21.64
2022-09-06T09:07:58.878Z,21.64
2022-09-06T09:08:58.801Z,21.66
2022-09-06T09:09:59.005Z,21.60
2022-09-06T09:10:58.540Z,21.55
2022-09-06T09:11:58.830Z,21.45
2022-09-06T09:12:58.648Z,21.21
2022-09-06T09:13:58.679Z,21.22
2022-09-06T09:14:58.513Z,21.22
2022-09-06T09:15:58.687Z,21.21
2022-09-06T09:16:58.726Z,21.15
2022-09-06T09:17:58.653Z,21.06
2022-09-06T09:18:58.835Z,21.00
2022-09-06T09:19:58.639Z,20.97
2022-09-06T09:20:58.553Z,21.00
2022-09-06T09:21:58.679Z,21.02
2022-09-06T09:22:58.810Z,21.06
2022-09-06T09:23:58.385Z,21.06
2022-09-06T09:24:58.639Z,21.07
2022-09-06T09:25:58.640Z,21.00
2022-09-06T09:26:58.619Z,21.02
2022-09-06T09:27:58.404Z,20.93
2022-09-06T09:28:58.679Z,20.90
2022-09-06T09:30:58.793Z,20.81
2022-09-06T09:31:58.698Z,20.82
2022-09-06T09:32:58.725Z,20.84
2022-09-06T09:33:58.571Z,20.74
2022-09-06T09:34:58.725Z,20.69
2022-09-06T09:35:58.622Z,20.67
2022-09-06T09:38:04.971Z,20.63
2022-09-06T09:38:58.668Z,20.58
2022-09-06T09:39:58.459Z,20.47
2022-09-06T09:40:58.311Z,20.56
2022-09-06T09:41:58.279Z,20.47
2022-09-06T09:42:58.318Z,20.55
2022-09-06T09:44:01.177Z,20.55
2022-09-06T09:44:58.355Z,20.56
2022-09-06T09:45:58.240Z,20.55
2022-09-06T09:46:58.409Z,20.55
2022-09-06T09:47:58.323Z,20.60
2022-09-06T09:48:58.252Z,20.52
2022-09-06T09:49:58.249Z,20.58
2022-09-06T09:50:58.263Z,20.58
2022-09-06T09:51:58.231Z,20.40
2022-09-06T09:52:58.281Z,20.36
2022-09-06T09:53:58.228Z,20.36
2022-09-06T09:54:58.241Z,20.21
2022-09-06T09:55:58.202Z,20.21
2022-09-06T09:56:58.199Z,20.13
2022-09-06T09:57:58.221Z,20.07
2022-09-06T09:58:58.221Z,19.95
2022-09-06T09:59:58.176Z,19.96
2022-09-06T10:00:58.490Z,20.00
2022-09-06T10:01:58.226Z,19.92
2022-09-06T10:02:58.227Z,20.06
2022-09-06T10:04:58.443Z,19.96
2022-09-06T10:06:02.667Z,19.89
2022-09-06T10:07:58.309Z,19.82
2022-09-06T10:08:58.175Z,19.88
2022-09-06T10:09:58.369Z,19.77
2022-09-06T10:10:58.423Z,19.79
2022-09-06T10:11:58.508Z,19.81
2022-09-06T10:12:58.164Z,19.71
2022-09-06T10:13:58.460Z,19.70
2022-09-06T10:15:00.227Z,19.64
2022-09-06T10:15:58.358Z,19.58
2022-09-06T10:16:58.207Z,19.58
2022-09-06T10:17:58.202Z,19.66
2022-09-06T10:18:58.130Z,19.63
2022-09-06T10:19:58.101Z,19.63
2022-09-06T10:20:58.126Z,19.71
2022-09-06T10:21:58.121Z,19.63
2022-09-06T10:22:58.232Z,19.67
2022-09-06T10:25:00.141Z,19.74
2022-09-06T10:26:02.154Z,19.70
2022-09-06T10:27:00.544Z,19.74
2022-09-06T10:28:10.839Z,19.62
2022-09-06T10:28:59.019Z,19.58
2022-09-06T10:30:00.748Z,19.58
2022-09-06T10:30:59.763Z,19.56
2022-09-06T10:31:58.051Z,19.58
2022-09-06T10:32:59.033Z,19.56
2022-09-06T10:33:58.476Z,19.56
2022-09-06T10:34:59.008Z,19.52
2022-09-06T10:35:58.662Z,19.49
2022-09-06T10:36:58.393Z,19.48
2022-09-06T10:37:58.889Z,19.59
2022-09-06T10:39:03.509Z,19.59
2022-09-06T10:39:58.808Z,19.66
2022-09-06T10:40:58.775Z,19.59
2022-09-06T10:41:58.453Z,19.59
2022-09-06T10:42:59.552Z,19.63
2022-09-06T10:43:58.210Z,19.58
2022-09-06T10:44:59.278Z,19.66
2022-09-06T10:45:58.399Z,19.67
2022-09-06T10:46:58.740Z,19.73
2022-09-06T10:47:59.558Z,19.76
2022-09-06T10:49:00.715Z,19.76
2022-09-06T10:49:58.505Z,19.73
2022-09-06T10:50:58.530Z,19.66
2022-09-06T10:52:00.187Z,19.71
2022-09-06T10:53:02.385Z,19.71
2022-09-06T10:53:57.943Z,19.70
2022-09-06T10:55:02.176Z,19.79
2022-09-06T10:56:02.091Z,19.74
2022-09-06T10:57:02.254Z,19.71
2022-09-06T10:58:18.410Z,19.74
2022-09-06T11:00:01.585Z,19.71
2022-09-06T11:01:01.752Z,19.76
2022-09-06T11:02:00.892Z,19.74
2022-09-06T11:04:06.665Z,19.77
2022-09-06T11:06:01.835Z,19.85
2022-09-06T11:07:01.301Z,19.81
2022-09-06T11:09:01.573Z,19.91
2022-09-06T11:10:02.416Z,19.88
2022-09-06T11:11:01.797Z,19.91
2022-09-06T11:12:01.580Z,19.92
2022-09-06T11:13:01.866Z,20.02
2022-09-06T11:14:05.540Z,19.99
2022-09-06T11:15:01.908Z,20.00
2022-09-06T11:16:02.059Z,19.96
2022-09-06T11:17:01.978Z,20.11
2022-09-06T11:18:00.821Z,20.11
2022-09-06T11:18:57.846Z,20.09
2022-09-06T11:20:02.206Z,20.09
2022-09-06T11:21:02.270Z,20.10
2022-09-06T11:22:01.752Z,20.11
2022-09-06T11:23:01.018Z,20.25
2022-09-06T11:23:57.877Z,20.06
2022-09-06T11:24:57.775Z,20.18
2022-09-06T11:25:57.795Z,20.21
2022-09-06T11:26:57.804Z,20.11
2022-09-06T11:27:58.356Z,20.11
2022-09-06T11:28:57.800Z,20.14
2022-09-06T11:29:57.844Z,20.19
2022-09-06T11:30:57.793Z,20.07
2022-09-06T11:32:57.767Z,20.00
2022-09-06T11:34:01.094Z,19.95
2022-09-06T11:34:57.768Z,19.92
2022-09-06T11:35:57.752Z,19.85
2022-09-06T11:36:57.736Z,19.82
2022-09-06T11:37:57.730Z,19.69
2022-09-06T11:38:57.736Z,19.58
2022-09-06T11:40:57.722Z,19.49
2022-09-06T11:41:57.713Z,19.54
2022-09-06T11:42:57.704Z,19.59
2022-09-06T11:43:57.734Z,19.55
2022-09-06T11:44:57.694Z,19.67
2022-09-06T11:45:57.781Z,19.66
2022-09-06T11:46:57.681Z,19.62
2022-09-06T11:47:57.928Z,19.63
2022-09-06T11:48:57.707Z,19.64
2022-09-06T11:49:57.915Z,19.67
2022-09-06T11:50:57.769Z,19.74
2022-09-06T11:51:57.710Z,19.82
2022-09-06T11:52:58.027Z,19.85
2022-09-06T11:53:57.924Z,19.88
2022-09-06T11:54:57.947Z,19.85
2022-09-06T11:55:57.934Z,19.92
2022-09-06T11:56:57.846Z,19.86
2022-09-06T11:57:57.656Z,19.86
2022-09-06T11:58:57.702Z,20.00
2022-09-06T11:59:57.671Z,19.82
2022-09-06T12:00:57.692Z,19.85
2022-09-06T12:01:57.649Z,19.91
2022-09-06T12:04:06.555Z,20.00
2022-09-06T12:05:00.281Z,19.92
2022-09-06T12:05:57.608Z,20.09
2022-09-06T12:06:57.632Z,20.09
2022-09-06T12:07:57.625Z,20.09
2022-09-06T12:08:57.652Z,20.07
2022-09-06T12:09:57.665Z,20.21
2022-09-06T12:10:57.644Z,20.21
2022-09-06T12:11:57.857Z,20.36
2022-09-06T12:12:57.609Z,20.48
2022-09-06T12:13:57.748Z,20.60
2022-09-06T12:14:57.610Z,20.72
2022-09-06T12:15:57.702Z,20.80
2022-09-06T12:16:57.597Z,20.93
2022-09-06T12:17:57.659Z,20.96
2022-09-06T12:18:57.636Z,21.06
2022-09-06T12:19:57.551Z,21.15
2022-09-06T12:20:57.591Z,21.35
2022-09-06T12:21:57.621Z,21.46
2022-09-06T12:22:57.545Z,21.55
2022-09-06T12:23:57.566Z,21.76
2022-09-06T12:24:57.554Z,21.72
2022-09-06T12:25:57.550Z,21.67
2022-09-06T12:26:57.525Z,21.72
2022-09-06T12:27:57.529Z,21.64
2022-09-06T12:28:57.508Z,21.80
2022-09-06T12:29:57.490Z,21.89
2022-09-06T12:30:57.561Z,22.06
2022-09-06T12:31:57.559Z,22.23
2022-09-06T12:32:57.483Z,22.26
2022-09-06T12:33:57.482Z,22.41
2022-09-06T12:35:57.831Z,22.53
2022-09-06T12:36:57.764Z,22.55
2022-09-06T12:37:57.528Z,22.75
2022-09-06T12:38:57.647Z,22.85
2022-09-06T12:39:57.577Z,22.96
2022-09-06T12:40:57.532Z,23.17
2022-09-06T12:41:57.484Z,23.21
2022-09-06T12:42:57.503Z,23.24
2022-09-06T12:43:57.491Z,23.18
2022-09-06T12:44:57.438Z,23.03
2022-09-06T12:45:57.581Z,23.06
2022-09-06T12:46:57.468Z,23.10
2022-09-06T12:47:57.458Z,23.18
2022-09-06T12:48:57.485Z,23.13
2022-09-06T12:49:57.462Z,23.18
2022-09-06T12:50:57.473Z,23.24
2022-09-06T12:51:57.440Z,23.20
2022-09-06T12:52:57.423Z,23.15
2022-09-06T12:53:57.418Z,23.27
2022-09-06T12:54:57.903Z,23.28
2022-09-06T12:55:57.432Z,23.34
2022-09-06T12:56:57.435Z,23.44
2022-09-06T12:57:57.399Z,23.36
2022-09-06T12:58:57.470Z,23.48
2022-09-06T12:59:57.388Z,23.51
2022-09-06T13:00:57.414Z,23.61
2022-09-06T13:01:57.547Z,23.69
2022-09-06T13:02:57.625Z,23.74
2022-09-06T13:03:57.372Z,23.86
2022-09-06T13:04:57.372Z,23.83
2022-09-06T13:05:57.384Z,23.81
2022-09-06T13:06:57.378Z,23.81
2022-09-06T13:07:57.368Z,23.84
2022-09-06T13:08:57.457Z,23.73
2022-09-06T13:09:57.696Z,23.91
2022-09-06T13:10:57.436Z,23.76
2022-09-06T13:11:57.368Z,23.84
2022-09-06T13:12:57.381Z,23.80
2022-09-06T13:13:57.354Z,23.68
2022-09-06T13:14:57.336Z,23.69
2022-09-06T13:15:57.440Z,23.65